sensor_id;sensor_type;location;lat;lon;timestamp;P1;durP1;ratioP1;P2;durP2;ratioP2
9597;SDS011;4837;50.890;4.724;2022-08-03T00:01:55;5.13;;;2.00;;
9597;SDS011;4837;50.890;4.724;2022-08-03T00:04:21;4.18;;;1.95;;
9597;SDS011;4837;50.890;4.724;2022-08-03T00:06:47;4.72;;;1.90;;
9597;SDS011;4837;50.890;4.724;2022-08-03T00:09:13;4.55;;;2.20;;
9597;SDS011;4837;50.890;4.724;2022-08-03T00:11:40;6.35;;;2.22;;
9597;SDS011;4837;50.890;4.724;2022-08-03T00:14:06;3.83;;;2.28;;
9597;SDS011;4837;50.890;4.724;2022-08-03T00:16:32;3.45;;;1.88;;
9597;SDS011;4837;50.890;4.724;2022-08-03T00:18:58;5.97;;;2.30;;
9597;SDS011;4837;50.890;4.724;2022-08-03T00:21:24;5.45;;;1.90;;
9597;SDS011;4837;50.890;4.724;2022-08-03T00:23:51;7.97;;;2.28;;
9597;SDS011;4837;50.890;4.724;2022-08-03T00:26:17;3.67;;;2.17;;
9597;SDS011;4837;50.890;4.724;2022-08-03T00:28:43;3.72;;;2.25;;
9597;SDS011;4837;50.890;4.724;2022-08-03T00:31:09;3.35;;;2.08;;
9597;SDS011;4837;50.890;4.724;2022-08-03T00:33:35;2.80;;;2.03;;
9597;SDS011;4837;50.890;4.724;2022-08-03T00:36:01;5.90;;;2.25;;
9597;SDS011;4837;50.890;4.724;2022-08-03T00:38:27;4.25;;;2.28;;
9597;SDS011;4837;50.890;4.724;2022-08-03T00:40:53;4.45;;;3.13;;
9597;SDS011;4837;50.890;4.724;2022-08-03T00:43:23;3.97;;;2.60;;
9597;SDS011;4837;50.890;4.724;2022-08-03T00:45:49;6.05;;;2.30;;
9597;SDS011;4837;50.890;4.724;2022-08-03T00:48:15;3.55;;;2.17;;
9597;SDS011;4837;50.890;4.724;2022-08-03T00:50:41;3.45;;;2.08;;
9597;SDS011;4837;50.890;4.724;2022-08-03T00:53:09;6.38;;;2.20;;
9597;SDS011;4837;50.890;4.724;2022-08-03T00:55:36;2.00;;;1.70;;
9597;SDS011;4837;50.890;4.724;2022-08-03T00:58:03;2.45;;;1.85;;
9597;SDS011;4837;50.890;4.724;2022-08-03T01:00:34;3.03;;;1.73;;
9597;SDS011;4837;50.890;4.724;2022-08-03T01:03:02;4.80;;;1.98;;
9597;SDS011;4837;50.890;4.724;2022-08-03T01:05:28;4.53;;;2.08;;
9597;SDS011;4837;50.890;4.724;2022-08-03T01:12:58;3.53;;;1.88;;
9597;SDS011;4837;50.890;4.724;2022-08-03T01:15:30;3.53;;;1.80;;
9597;SDS011;4837;50.890;4.724;2022-08-03T01:20:33;2.80;;;1.98;;
9597;SDS011;4837;50.890;4.724;2022-08-03T01:23:04;4.50;;;2.20;;
9597;SDS011;4837;50.890;4.724;2022-08-03T01:31:00;4.57;;;1.70;;
9597;SDS011;4837;50.890;4.724;2022-08-03T01:33:46;4.28;;;1.77;;
9597;SDS011;4837;50.890;4.724;2022-08-03T01:36:13;3.38;;;1.50;;
9597;SDS011;4837;50.890;4.724;2022-08-03T01:38:42;5.20;;;1.83;;
9597;SDS011;4837;50.890;4.724;2022-08-03T01:41:31;5.03;;;1.65;;
9597;SDS011;4837;50.890;4.724;2022-08-03T01:43:55;4.45;;;1.90;;
9597;SDS011;4837;50.890;4.724;2022-08-03T01:46:22;4.38;;;2.00;;
9597;SDS011;4837;50.890;4.724;2022-08-03T01:48:50;6.15;;;2.10;;
9597;SDS011;4837;50.890;4.724;2022-08-03T01:51:17;3.92;;;2.00;;
9597;SDS011;4837;50.890;4.724;2022-08-03T01:53:44;4.55;;;2.05;;
9597;SDS011;4837;50.890;4.724;2022-08-03T01:56:11;3.10;;;2.10;;
9597;SDS011;4837;50.890;4.724;2022-08-03T01:58:38;4.68;;;2.03;;
9597;SDS011;4837;50.890;4.724;2022-08-03T02:01:05;3.80;;;2.00;;
9597;SDS011;4837;50.890;4.724;2022-08-03T02:03:33;5.03;;;2.33;;
9597;SDS011;4837;50.890;4.724;2022-08-03T02:05:59;3.35;;;2.08;;
9597;SDS011;4837;50.890;4.724;2022-08-03T02:08:26;3.15;;;1.90;;
9597;SDS011;4837;50.890;4.724;2022-08-03T02:10:54;3.83;;;1.98;;
9597;SDS011;4837;50.890;4.724;2022-08-03T02:13:21;4.22;;;2.10;;
9597;SDS011;4837;50.890;4.724;2022-08-03T02:15:49;2.42;;;1.90;;
9597;SDS011;4837;50.890;4.724;2022-08-03T02:18:17;3.25;;;1.90;;
9597;SDS011;4837;50.890;4.724;2022-08-03T02:20:43;3.90;;;1.98;;
9597;SDS011;4837;50.890;4.724;2022-08-03T02:23:09;2.97;;;1.98;;
9597;SDS011;4837;50.890;4.724;2022-08-03T02:25:37;2.65;;;1.58;;
9597;SDS011;4837;50.890;4.724;2022-08-03T02:28:08;3.35;;;2.03;;
9597;SDS011;4837;50.890;4.724;2022-08-03T02:30:36;4.75;;;2.03;;
9597;SDS011;4837;50.890;4.724;2022-08-03T02:33:03;3.17;;;1.80;;
9597;SDS011;4837;50.890;4.724;2022-08-03T02:35:30;3.17;;;2.30;;
9597;SDS011;4837;50.890;4.724;2022-08-03T02:37:58;3.15;;;1.80;;
9597;SDS011;4837;50.890;4.724;2022-08-03T02:40:27;2.33;;;1.73;;
9597;SDS011;4837;50.890;4.724;2022-08-03T02:42:54;2.80;;;2.03;;
9597;SDS011;4837;50.890;4.724;2022-08-03T02:45:23;4.95;;;1.85;;
9597;SDS011;4837;50.890;4.724;2022-08-03T02:47:50;4.72;;;1.95;;
9597;SDS011;4837;50.890;4.724;2022-08-03T02:50:17;6.15;;;2.42;;
9597;SDS011;4837;50.890;4.724;2022-08-03T02:52:44;3.20;;;1.95;;
9597;SDS011;4837;50.890;4.724;2022-08-03T02:55:11;3.85;;;2.17;;
9597;SDS011;4837;50.890;4.724;2022-08-03T02:57:37;5.85;;;2.33;;
9597;SDS011;4837;50.890;4.724;2022-08-03T03:00:04;3.65;;;1.90;;
9597;SDS011;4837;50.890;4.724;2022-08-03T03:02:30;3.85;;;1.80;;
9597;SDS011;4837;50.890;4.724;2022-08-03T03:04:56;2.40;;;1.80;;
9597;SDS011;4837;50.890;4.724;2022-08-03T03:07:24;5.22;;;1.90;;
9597;SDS011;4837;50.890;4.724;2022-08-03T03:09:50;4.35;;;2.03;;
9597;SDS011;4837;50.890;4.724;2022-08-03T03:12:17;4.45;;;2.15;;
9597;SDS011;4837;50.890;4.724;2022-08-03T03:14:44;5.63;;;2.10;;
9597;SDS011;4837;50.890;4.724;2022-08-03T03:17:10;3.95;;;2.10;;
9597;SDS011;4837;50.890;4.724;2022-08-03T03:19:38;3.90;;;1.80;;
9597;SDS011;4837;50.890;4.724;2022-08-03T03:22:05;3.83;;;1.95;;
9597;SDS011;4837;50.890;4.724;2022-08-03T03:24:32;4.88;;;2.03;;
9597;SDS011;4837;50.890;4.724;2022-08-03T03:26:59;4.40;;;2.05;;
9597;SDS011;4837;50.890;4.724;2022-08-03T03:29:25;3.78;;;1.77;;
9597;SDS011;4837;50.890;4.724;2022-08-03T03:31:52;4.38;;;1.90;;
9597;SDS011;4837;50.890;4.724;2022-08-03T03:34:18;4.45;;;1.90;;
9597;SDS011;4837;50.890;4.724;2022-08-03T03:36:45;3.67;;;2.05;;
9597;SDS011;4837;50.890;4.724;2022-08-03T03:39:11;3.90;;;1.77;;
9597;SDS011;4837;50.890;4.724;2022-08-03T03:41:38;3.25;;;1.92;;
9597;SDS011;4837;50.890;4.724;2022-08-03T03:44:04;3.35;;;2.00;;
9597;SDS011;4837;50.890;4.724;2022-08-03T03:46:31;5.78;;;2.00;;
9597;SDS011;4837;50.890;4.724;2022-08-03T03:48:57;4.18;;;2.17;;
9597;SDS011;4837;50.890;4.724;2022-08-03T03:51:23;4.13;;;2.28;;
9597;SDS011;4837;50.890;4.724;2022-08-03T03:53:56;2.80;;;1.90;;
9597;SDS011;4837;50.890;4.724;2022-08-03T03:56:22;3.55;;;2.15;;
9597;SDS011;4837;50.890;4.724;2022-08-03T03:58:48;5.28;;;2.20;;
9597;SDS011;4837;50.890;4.724;2022-08-03T04:01:14;3.53;;;2.00;;
9597;SDS011;4837;50.890;4.724;2022-08-03T04:03:41;6.40;;;2.35;;
9597;SDS011;4837;50.890;4.724;2022-08-03T04:06:07;5.13;;;1.98;;
9597;SDS011;4837;50.890;4.724;2022-08-03T04:08:52;4.80;;;2.22;;
9597;SDS011;4837;50.890;4.724;2022-08-03T04:14:13;3.72;;;2.60;;
9597;SDS011;4837;50.890;4.724;2022-08-03T04:16:45;5.10;;;2.28;;
9597;SDS011;4837;50.890;4.724;2022-08-03T04:19:23;3.92;;;2.00;;
9597;SDS011;4837;50.890;4.724;2022-08-03T04:21:51;4.10;;;2.00;;
9597;SDS011;4837;50.890;4.724;2022-08-03T04:24:19;5.05;;;1.88;;
9597;SDS011;4837;50.890;4.724;2022-08-03T04:26:47;2.97;;;1.77;;
9597;SDS011;4837;50.890;4.724;2022-08-03T04:29:14;4.95;;;2.15;;
9597;SDS011;4837;50.890;4.724;2022-08-03T04:31:41;5.93;;;2.00;;
9597;SDS011;4837;50.890;4.724;2022-08-03T04:34:08;4.00;;;1.92;;
9597;SDS011;4837;50.890;4.724;2022-08-03T04:36:36;4.20;;;2.30;;
9597;SDS011;4837;50.890;4.724;2022-08-03T04:39:07;4.43;;;2.58;;
9597;SDS011;4837;50.890;4.724;2022-08-03T04:41:35;3.85;;;1.83;;
9597;SDS011;4837;50.890;4.724;2022-08-03T04:44:03;3.60;;;2.38;;
9597;SDS011;4837;50.890;4.724;2022-08-03T04:46:39;6.70;;;2.45;;
9597;SDS011;4837;50.890;4.724;2022-08-03T04:49:05;5.20;;;2.25;;
9597;SDS011;4837;50.890;4.724;2022-08-03T04:51:32;6.45;;;2.15;;
9597;SDS011;4837;50.890;4.724;2022-08-03T04:53:59;4.05;;;2.47;;
9597;SDS011;4837;50.890;4.724;2022-08-03T04:56:26;4.05;;;2.20;;
9597;SDS011;4837;50.890;4.724;2022-08-03T04:58:52;5.25;;;2.25;;
9597;SDS011;4837;50.890;4.724;2022-08-03T05:01:18;6.35;;;2.05;;
9597;SDS011;4837;50.890;4.724;2022-08-03T05:03:45;5.75;;;2.25;;
9597;SDS011;4837;50.890;4.724;2022-08-03T05:06:11;4.30;;;2.17;;
9597;SDS011;4837;50.890;4.724;2022-08-03T05:08:37;7.05;;;2.67;;
9597;SDS011;4837;50.890;4.724;2022-08-03T05:11:04;5.65;;;2.00;;
9597;SDS011;4837;50.890;4.724;2022-08-03T05:13:30;3.65;;;2.22;;
9597;SDS011;4837;50.890;4.724;2022-08-03T05:15:56;7.07;;;2.17;;
9597;SDS011;4837;50.890;4.724;2022-08-03T05:18:22;4.70;;;2.58;;
9597;SDS011;4837;50.890;4.724;2022-08-03T05:20:48;2.72;;;1.90;;
9597;SDS011;4837;50.890;4.724;2022-08-03T05:40:17;5.85;;;2.00;;
9597;SDS011;4837;50.890;4.724;2022-08-03T05:42:44;4.78;;;2.10;;
9597;SDS011;4837;50.890;4.724;2022-08-03T05:45:10;4.72;;;1.88;;
9597;SDS011;4837;50.890;4.724;2022-08-03T05:47:45;4.82;;;1.90;;
9597;SDS011;4837;50.890;4.724;2022-08-03T05:50:12;4.75;;;2.40;;
9597;SDS011;4837;50.890;4.724;2022-08-03T05:52:39;5.97;;;1.95;;
9597;SDS011;4837;50.890;4.724;2022-08-03T05:55:07;4.85;;;1.98;;
9597;SDS011;4837;50.890;4.724;2022-08-03T05:57:33;3.67;;;1.95;;
9597;SDS011;4837;50.890;4.724;2022-08-03T06:00:03;4.20;;;2.00;;
9597;SDS011;4837;50.890;4.724;2022-08-03T06:02:30;2.70;;;1.70;;
9597;SDS011;4837;50.890;4.724;2022-08-03T06:04:56;3.67;;;1.90;;
9597;SDS011;4837;50.890;4.724;2022-08-03T06:07:22;4.07;;;1.90;;
9597;SDS011;4837;50.890;4.724;2022-08-03T06:09:48;4.53;;;2.00;;
9597;SDS011;4837;50.890;4.724;2022-08-03T06:12:14;5.35;;;2.10;;
9597;SDS011;4837;50.890;4.724;2022-08-03T06:14:40;5.53;;;1.90;;
9597;SDS011;4837;50.890;4.724;2022-08-03T06:17:06;2.97;;;1.52;;
9597;SDS011;4837;50.890;4.724;2022-08-03T06:19:33;5.32;;;1.70;;
9597;SDS011;4837;50.890;4.724;2022-08-03T06:21:59;3.08;;;1.67;;
9597;SDS011;4837;50.890;4.724;2022-08-03T06:24:25;5.88;;;1.88;;
9597;SDS011;4837;50.890;4.724;2022-08-03T06:26:51;5.60;;;1.70;;
9597;SDS011;4837;50.890;4.724;2022-08-03T06:29:17;6.07;;;1.80;;
9597;SDS011;4837;50.890;4.724;2022-08-03T06:31:43;3.03;;;1.60;;
9597;SDS011;4837;50.890;4.724;2022-08-03T06:34:09;4.60;;;1.58;;
9597;SDS011;4837;50.890;4.724;2022-08-03T06:36:35;3.95;;;1.83;;
9597;SDS011;4837;50.890;4.724;2022-08-03T06:39:01;5.18;;;1.90;;
9597;SDS011;4837;50.890;4.724;2022-08-03T06:41:27;3.90;;;1.40;;
9597;SDS011;4837;50.890;4.724;2022-08-03T06:43:54;3.63;;;1.55;;
9597;SDS011;4837;50.890;4.724;2022-08-03T06:46:20;4.15;;;1.67;;
9597;SDS011;4837;50.890;4.724;2022-08-03T06:48:46;7.35;;;1.70;;
9597;SDS011;4837;50.890;4.724;2022-08-03T06:51:12;5.13;;;1.38;;
9597;SDS011;4837;50.890;4.724;2022-08-03T06:53:39;3.40;;;1.33;;
9597;SDS011;4837;50.890;4.724;2022-08-03T06:56:05;2.95;;;1.63;;
9597;SDS011;4837;50.890;4.724;2022-08-03T06:58:31;3.67;;;1.50;;
9597;SDS011;4837;50.890;4.724;2022-08-03T07:00:57;2.65;;;1.50;;
9597;SDS011;4837;50.890;4.724;2022-08-03T07:03:23;3.65;;;1.40;;
9597;SDS011;4837;50.890;4.724;2022-08-03T07:05:49;2.90;;;1.25;;
9597;SDS011;4837;50.890;4.724;2022-08-03T07:08:16;4.18;;;1.65;;
9597;SDS011;4837;50.890;4.724;2022-08-03T07:10:42;5.35;;;1.58;;
9597;SDS011;4837;50.890;4.724;2022-08-03T07:13:09;2.35;;;1.30;;
9597;SDS011;4837;50.890;4.724;2022-08-03T07:15:35;6.05;;;1.77;;
9597;SDS011;4837;50.890;4.724;2022-08-03T07:18:01;6.10;;;1.80;;
9597;SDS011;4837;50.890;4.724;2022-08-03T07:20:27;2.05;;;1.30;;
9597;SDS011;4837;50.890;4.724;2022-08-03T07:22:53;3.38;;;1.52;;
9597;SDS011;4837;50.890;4.724;2022-08-03T07:25:20;5.00;;;1.63;;
9597;SDS011;4837;50.890;4.724;2022-08-03T07:27:47;2.00;;;1.35;;
9597;SDS011;4837;50.890;4.724;2022-08-03T07:30:13;4.90;;;1.63;;
9597;SDS011;4837;50.890;4.724;2022-08-03T07:32:40;3.55;;;1.30;;
9597;SDS011;4837;50.890;4.724;2022-08-03T07:35:07;4.82;;;1.55;;
9597;SDS011;4837;50.890;4.724;2022-08-03T07:37:34;4.10;;;1.60;;
9597;SDS011;4837;50.890;4.724;2022-08-03T07:40:01;3.55;;;1.48;;
9597;SDS011;4837;50.890;4.724;2022-08-03T07:42:28;4.85;;;1.50;;
9597;SDS011;4837;50.890;4.724;2022-08-03T07:44:54;3.03;;;1.50;;
9597;SDS011;4837;50.890;4.724;2022-08-03T07:47:22;4.82;;;1.50;;
9597;SDS011;4837;50.890;4.724;2022-08-03T07:49:49;3.63;;;1.20;;
9597;SDS011;4837;50.890;4.724;2022-08-03T07:52:15;3.63;;;1.25;;
9597;SDS011;4837;50.890;4.724;2022-08-03T07:54:59;4.65;;;1.60;;
9597;SDS011;4837;50.890;4.724;2022-08-03T07:57:26;2.97;;;1.30;;
9597;SDS011;4837;50.890;4.724;2022-08-03T07:59:52;3.50;;;1.20;;
9597;SDS011;4837;50.890;4.724;2022-08-03T08:02:18;5.22;;;1.40;;
9597;SDS011;4837;50.890;4.724;2022-08-03T08:04:44;4.53;;;1.13;;
9597;SDS011;4837;50.890;4.724;2022-08-03T08:07:10;7.57;;;1.77;;
9597;SDS011;4837;50.890;4.724;2022-08-03T08:09:37;4.25;;;1.52;;
9597;SDS011;4837;50.890;4.724;2022-08-03T08:12:03;5.05;;;1.80;;
9597;SDS011;4837;50.890;4.724;2022-08-03T08:14:29;5.57;;;1.55;;
9597;SDS011;4837;50.890;4.724;2022-08-03T08:16:55;6.45;;;1.30;;
9597;SDS011;4837;50.890;4.724;2022-08-03T08:19:21;6.13;;;1.90;;
9597;SDS011;4837;50.890;4.724;2022-08-03T08:21:47;5.72;;;1.73;;
9597;SDS011;4837;50.890;4.724;2022-08-03T08:24:14;5.10;;;1.25;;
9597;SDS011;4837;50.890;4.724;2022-08-03T08:26:40;5.10;;;1.40;;
9597;SDS011;4837;50.890;4.724;2022-08-03T08:29:06;8.50;;;1.58;;
9597;SDS011;4837;50.890;4.724;2022-08-03T08:31:32;8.85;;;1.80;;
9597;SDS011;4837;50.890;4.724;2022-08-03T08:33:58;5.72;;;1.50;;
9597;SDS011;4837;50.890;4.724;2022-08-03T08:36:29;8.63;;;1.90;;
9597;SDS011;4837;50.890;4.724;2022-08-03T08:38:55;5.05;;;1.75;;
9597;SDS011;4837;50.890;4.724;2022-08-03T08:41:21;5.38;;;1.50;;
9597;SDS011;4837;50.890;4.724;2022-08-03T08:43:48;6.32;;;1.55;;
9597;SDS011;4837;50.890;4.724;2022-08-03T08:46:14;4.25;;;1.30;;
9597;SDS011;4837;50.890;4.724;2022-08-03T08:48:41;9.10;;;2.20;;
9597;SDS011;4837;50.890;4.724;2022-08-03T08:51:08;10.02;;;1.55;;
9597;SDS011;4837;50.890;4.724;2022-08-03T08:53:36;7.15;;;1.70;;
9597;SDS011;4837;50.890;4.724;2022-08-03T08:56:04;5.55;;;1.42;;
9597;SDS011;4837;50.890;4.724;2022-08-03T08:58:33;5.18;;;1.63;;
9597;SDS011;4837;50.890;4.724;2022-08-03T09:01:01;6.03;;;1.90;;
9597;SDS011;4837;50.890;4.724;2022-08-03T09:03:28;3.53;;;1.50;;
9597;SDS011;4837;50.890;4.724;2022-08-03T09:05:54;6.07;;;1.55;;
9597;SDS011;4837;50.890;4.724;2022-08-03T09:08:20;6.50;;;1.70;;
9597;SDS011;4837;50.890;4.724;2022-08-03T09:10:47;3.78;;;1.23;;
9597;SDS011;4837;50.890;4.724;2022-08-03T09:13:13;4.45;;;1.17;;
9597;SDS011;4837;50.890;4.724;2022-08-03T09:15:39;7.32;;;1.50;;
9597;SDS011;4837;50.890;4.724;2022-08-03T09:18:06;5.50;;;1.30;;
9597;SDS011;4837;50.890;4.724;2022-08-03T09:20:33;4.85;;;1.55;;
9597;SDS011;4837;50.890;4.724;2022-08-03T09:23:04;6.38;;;1.65;;
9597;SDS011;4837;50.890;4.724;2022-08-03T09:25:39;6.72;;;1.48;;
9597;SDS011;4837;50.890;4.724;2022-08-03T09:28:07;3.63;;;1.50;;
9597;SDS011;4837;50.890;4.724;2022-08-03T09:30:34;6.05;;;1.42;;
9597;SDS011;4837;50.890;4.724;2022-08-03T09:33:01;5.18;;;1.58;;
9597;SDS011;4837;50.890;4.724;2022-08-03T09:35:27;4.45;;;1.60;;
9597;SDS011;4837;50.890;4.724;2022-08-03T09:38:15;6.40;;;1.75;;
9597;SDS011;4837;50.890;4.724;2022-08-03T09:40:40;4.63;;;1.52;;
9597;SDS011;4837;50.890;4.724;2022-08-03T09:43:07;3.88;;;1.13;;
9597;SDS011;4837;50.890;4.724;2022-08-03T09:45:34;3.47;;;1.20;;
9597;SDS011;4837;50.890;4.724;2022-08-03T09:48:19;3.05;;;1.08;;
9597;SDS011;4837;50.890;4.724;2022-08-03T09:53:18;4.13;;;1.15;;
9597;SDS011;4837;50.890;4.724;2022-08-03T09:58:21;2.38;;;0.93;;
9597;SDS011;4837;50.890;4.724;2022-08-03T10:03:23;5.00;;;1.33;;
9597;SDS011;4837;50.890;4.724;2022-08-03T10:05:49;3.95;;;1.20;;
9597;SDS011;4837;50.890;4.724;2022-08-03T10:08:16;4.38;;;1.00;;
9597;SDS011;4837;50.890;4.724;2022-08-03T10:10:42;3.88;;;1.80;;
9597;SDS011;4837;50.890;4.724;2022-08-03T10:13:10;4.50;;;1.38;;
9597;SDS011;4837;50.890;4.724;2022-08-03T10:15:38;3.30;;;1.25;;
9597;SDS011;4837;50.890;4.724;2022-08-03T10:18:04;6.32;;;1.30;;
9597;SDS011;4837;50.890;4.724;2022-08-03T10:20:31;2.30;;;1.02;;
9597;SDS011;4837;50.890;4.724;2022-08-03T10:23:00;2.05;;;1.02;;
9597;SDS011;4837;50.890;4.724;2022-08-03T10:25:26;2.95;;;1.10;;
9597;SDS011;4837;50.890;4.724;2022-08-03T10:27:54;3.60;;;0.98;;
9597;SDS011;4837;50.890;4.724;2022-08-03T10:30:21;4.22;;;1.40;;
9597;SDS011;4837;50.890;4.724;2022-08-03T10:32:51;4.13;;;1.15;;
9597;SDS011;4837;50.890;4.724;2022-08-03T10:35:21;4.72;;;1.30;;
9597;SDS011;4837;50.890;4.724;2022-08-03T10:37:51;5.88;;;1.38;;
9597;SDS011;4837;50.890;4.724;2022-08-03T10:40:21;6.85;;;1.13;;
9597;SDS011;4837;50.890;4.724;2022-08-03T10:42:48;5.85;;;1.20;;
9597;SDS011;4837;50.890;4.724;2022-08-03T10:45:19;4.70;;;1.20;;
9597;SDS011;4837;50.890;4.724;2022-08-03T10:47:46;5.72;;;1.60;;
9597;SDS011;4837;50.890;4.724;2022-08-03T10:50:13;3.50;;;1.20;;
9597;SDS011;4837;50.890;4.724;2022-08-03T10:52:55;4.03;;;1.00;;
9597;SDS011;4837;50.890;4.724;2022-08-03T10:55:28;2.80;;;1.25;;
9597;SDS011;4837;50.890;4.724;2022-08-03T10:58:13;3.60;;;1.08;;
9597;SDS011;4837;50.890;4.724;2022-08-03T11:00:49;3.33;;;1.00;;
9597;SDS011;4837;50.890;4.724;2022-08-03T11:03:15;7.10;;;1.30;;
9597;SDS011;4837;50.890;4.724;2022-08-03T11:05:44;4.78;;;1.42;;
9597;SDS011;4837;50.890;4.724;2022-08-03T11:10:50;3.75;;;1.00;;
9597;SDS011;4837;50.890;4.724;2022-08-03T11:13:18;2.90;;;1.10;;
9597;SDS011;4837;50.890;4.724;2022-08-03T11:15:45;2.90;;;0.90;;
9597;SDS011;4837;50.890;4.724;2022-08-03T11:18:11;2.13;;;1.08;;
9597;SDS011;4837;50.890;4.724;2022-08-03T11:23:10;1.65;;;1.10;;
9597;SDS011;4837;50.890;4.724;2022-08-03T11:26:23;2.85;;;1.00;;
9597;SDS011;4837;50.890;4.724;2022-08-03T11:28:25;3.03;;;1.00;;
9597;SDS011;4837;50.890;4.724;2022-08-03T11:30:52;2.22;;;0.95;;
9597;SDS011;4837;50.890;4.724;2022-08-03T11:33:28;3.95;;;1.40;;
9597;SDS011;4837;50.890;4.724;2022-08-03T11:35:59;3.72;;;1.10;;
9597;SDS011;4837;50.890;4.724;2022-08-03T11:38:25;1.77;;;1.00;;
9597;SDS011;4837;50.890;4.724;2022-08-03T11:40:51;2.05;;;1.30;;
9597;SDS011;4837;50.890;4.724;2022-08-03T11:46:01;2.42;;;1.05;;
9597;SDS011;4837;50.890;4.724;2022-08-03T11:48:37;3.20;;;1.20;;
9597;SDS011;4837;50.890;4.724;2022-08-03T11:51:05;2.38;;;1.05;;
9597;SDS011;4837;50.890;4.724;2022-08-03T11:53:32;3.03;;;1.00;;
9597;SDS011;4837;50.890;4.724;2022-08-03T11:55:59;4.22;;;1.30;;
9597;SDS011;4837;50.890;4.724;2022-08-03T11:58:26;3.15;;;1.10;;
9597;SDS011;4837;50.890;4.724;2022-08-03T12:00:56;1.23;;;1.00;;
9597;SDS011;4837;50.890;4.724;2022-08-03T12:03:30;2.00;;;1.05;;
9597;SDS011;4837;50.890;4.724;2022-08-03T12:05:56;2.30;;;0.93;;
9597;SDS011;4837;50.890;4.724;2022-08-03T12:10:52;1.30;;;1.05;;
9597;SDS011;4837;50.890;4.724;2022-08-03T12:13:18;3.67;;;1.20;;
9597;SDS011;4837;50.890;4.724;2022-08-03T12:15:55;3.38;;;1.38;;
9597;SDS011;4837;50.890;4.724;2022-08-03T12:18:21;2.33;;;1.20;;
9597;SDS011;4837;50.890;4.724;2022-08-03T12:20:49;2.33;;;1.17;;
9597;SDS011;4837;50.890;4.724;2022-08-03T12:23:16;3.08;;;1.10;;
9597;SDS011;4837;50.890;4.724;2022-08-03T12:25:42;3.45;;;1.30;;
9597;SDS011;4837;50.890;4.724;2022-08-03T12:28:10;4.32;;;1.38;;
9597;SDS011;4837;50.890;4.724;2022-08-03T12:30:37;2.33;;;1.38;;
9597;SDS011;4837;50.890;4.724;2022-08-03T12:33:13;1.45;;;0.98;;
9597;SDS011;4837;50.890;4.724;2022-08-03T12:35:39;2.72;;;1.15;;
9597;SDS011;4837;50.890;4.724;2022-08-03T12:38:05;2.85;;;1.13;;
9597;SDS011;4837;50.890;4.724;2022-08-03T12:40:31;2.83;;;1.20;;
9597;SDS011;4837;50.890;4.724;2022-08-03T12:42:57;2.60;;;1.30;;
9597;SDS011;4837;50.890;4.724;2022-08-03T12:45:25;2.28;;;1.00;;
9597;SDS011;4837;50.890;4.724;2022-08-03T12:47:55;1.83;;;1.23;;
9597;SDS011;4837;50.890;4.724;2022-08-03T12:50:32;3.40;;;1.00;;
9597;SDS011;4837;50.890;4.724;2022-08-03T12:52:59;2.85;;;1.17;;
9597;SDS011;4837;50.890;4.724;2022-08-03T12:55:25;4.85;;;1.20;;
9597;SDS011;4837;50.890;4.724;2022-08-03T12:58:01;4.05;;;1.30;;
9597;SDS011;4837;50.890;4.724;2022-08-03T13:00:27;3.03;;;1.17;;
9597;SDS011;4837;50.890;4.724;2022-08-03T13:02:58;2.60;;;1.02;;
9597;SDS011;4837;50.890;4.724;2022-08-03T13:05:24;3.80;;;1.30;;
9597;SDS011;4837;50.890;4.724;2022-08-03T13:07:50;2.83;;;1.38;;
9597;SDS011;4837;50.890;4.724;2022-08-03T13:10:26;3.55;;;1.10;;
9597;SDS011;4837;50.890;4.724;2022-08-03T13:12:53;2.08;;;1.13;;
9597;SDS011;4837;50.890;4.724;2022-08-03T13:15:22;1.73;;;1.10;;
9597;SDS011;4837;50.890;4.724;2022-08-03T13:17:50;2.20;;;1.20;;
9597;SDS011;4837;50.890;4.724;2022-08-03T13:20:17;2.17;;;1.05;;
9597;SDS011;4837;50.890;4.724;2022-08-03T13:22:45;3.58;;;1.13;;
9597;SDS011;4837;50.890;4.724;2022-08-03T13:25:11;2.08;;;1.00;;
9597;SDS011;4837;50.890;4.724;2022-08-03T13:27:38;2.67;;;0.98;;
9597;SDS011;4837;50.890;4.724;2022-08-03T13:30:04;1.27;;;1.10;;
9597;SDS011;4837;50.890;4.724;2022-08-03T13:32:31;2.38;;;1.00;;
9597;SDS011;4837;50.890;4.724;2022-08-03T13:34:57;1.60;;;0.90;;
9597;SDS011;4837;50.890;4.724;2022-08-03T13:37:24;2.42;;;1.00;;
9597;SDS011;4837;50.890;4.724;2022-08-03T13:39:50;3.45;;;1.17;;
9597;SDS011;4837;50.890;4.724;2022-08-03T13:42:16;2.92;;;1.10;;
9597;SDS011;4837;50.890;4.724;2022-08-03T13:44:42;2.92;;;1.02;;
9597;SDS011;4837;50.890;4.724;2022-08-03T13:47:08;2.83;;;1.00;;
9597;SDS011;4837;50.890;4.724;2022-08-03T13:49:35;2.72;;;1.08;;
9597;SDS011;4837;50.890;4.724;2022-08-03T13:52:01;2.42;;;1.23;;
9597;SDS011;4837;50.890;4.724;2022-08-03T13:54:27;1.10;;;0.98;;
9597;SDS011;4837;50.890;4.724;2022-08-03T13:56:54;1.40;;;0.85;;
9597;SDS011;4837;50.890;4.724;2022-08-03T13:59:20;3.53;;;1.13;;
9597;SDS011;4837;50.890;4.724;2022-08-03T14:01:47;3.10;;;1.20;;
9597;SDS011;4837;50.890;4.724;2022-08-03T14:04:14;2.35;;;1.00;;
9597;SDS011;4837;50.890;4.724;2022-08-03T14:06:40;3.83;;;1.30;;
9597;SDS011;4837;50.890;4.724;2022-08-03T14:09:08;5.13;;;1.20;;
9597;SDS011;4837;50.890;4.724;2022-08-03T14:11:34;1.80;;;1.00;;
9597;SDS011;4837;50.890;4.724;2022-08-03T14:14:00;1.85;;;1.02;;
9597;SDS011;4837;50.890;4.724;2022-08-03T14:16:26;2.28;;;1.08;;
9597;SDS011;4837;50.890;4.724;2022-08-03T14:18:52;2.55;;;1.02;;
9597;SDS011;4837;50.890;4.724;2022-08-03T14:21:18;2.05;;;1.00;;
9597;SDS011;4837;50.890;4.724;2022-08-03T14:23:44;4.40;;;1.17;;
9597;SDS011;4837;50.890;4.724;2022-08-03T14:26:10;1.90;;;1.00;;
9597;SDS011;4837;50.890;4.724;2022-08-03T14:28:38;1.45;;;1.02;;
9597;SDS011;4837;50.890;4.724;2022-08-03T14:31:05;2.22;;;1.27;;
9597;SDS011;4837;50.890;4.724;2022-08-03T14:33:31;3.53;;;1.08;;
9597;SDS011;4837;50.890;4.724;2022-08-03T14:35:57;2.17;;;0.75;;
9597;SDS011;4837;50.890;4.724;2022-08-03T14:38:23;2.85;;;1.17;;
9597;SDS011;4837;50.890;4.724;2022-08-03T14:40:49;3.55;;;1.13;;
9597;SDS011;4837;50.890;4.724;2022-08-03T14:43:17;1.77;;;1.13;;
9597;SDS011;4837;50.890;4.724;2022-08-03T14:45:45;2.78;;;1.10;;
9597;SDS011;4837;50.890;4.724;2022-08-03T14:48:11;3.20;;;1.15;;
9597;SDS011;4837;50.890;4.724;2022-08-03T14:50:37;2.90;;;1.10;;
9597;SDS011;4837;50.890;4.724;2022-08-03T14:53:04;1.10;;;1.00;;
9597;SDS011;4837;50.890;4.724;2022-08-03T14:55:30;3.92;;;1.20;;
9597;SDS011;4837;50.890;4.724;2022-08-03T14:57:56;4.25;;;1.10;;
9597;SDS011;4837;50.890;4.724;2022-08-03T15:00:24;1.30;;;1.10;;
9597;SDS011;4837;50.890;4.724;2022-08-03T15:02:50;2.63;;;1.13;;
9597;SDS011;4837;50.890;4.724;2022-08-03T15:05:16;3.45;;;1.23;;
9597;SDS011;4837;50.890;4.724;2022-08-03T15:07:42;3.58;;;1.10;;
9597;SDS011;4837;50.890;4.724;2022-08-03T15:10:08;3.05;;;1.15;;
9597;SDS011;4837;50.890;4.724;2022-08-03T15:12:34;1.65;;;1.02;;
9597;SDS011;4837;50.890;4.724;2022-08-03T15:15:00;1.77;;;1.10;;
9597;SDS011;4837;50.890;4.724;2022-08-03T15:17:26;2.60;;;1.70;;
9597;SDS011;4837;50.890;4.724;2022-08-03T15:19:52;3.42;;;1.10;;
9597;SDS011;4837;50.890;4.724;2022-08-03T15:22:18;3.35;;;1.08;;
9597;SDS011;4837;50.890;4.724;2022-08-03T15:24:45;1.58;;;1.10;;
9597;SDS011;4837;50.890;4.724;2022-08-03T15:27:11;2.85;;;1.20;;
9597;SDS011;4837;50.890;4.724;2022-08-03T15:29:39;2.67;;;0.90;;
9597;SDS011;4837;50.890;4.724;2022-08-03T15:32:05;5.07;;;1.10;;
9597;SDS011;4837;50.890;4.724;2022-08-03T15:34:31;1.08;;;0.90;;
9597;SDS011;4837;50.890;4.724;2022-08-03T15:36:57;1.92;;;1.00;;
9597;SDS011;4837;50.890;4.724;2022-08-03T15:39:23;2.53;;;1.20;;
9597;SDS011;4837;50.890;4.724;2022-08-03T15:41:49;2.47;;;0.90;;
9597;SDS011;4837;50.890;4.724;2022-08-03T15:44:18;1.33;;;0.98;;
9597;SDS011;4837;50.890;4.724;2022-08-03T15:46:45;2.28;;;0.90;;
9597;SDS011;4837;50.890;4.724;2022-08-03T15:49:11;3.72;;;1.10;;
9597;SDS011;4837;50.890;4.724;2022-08-03T15:51:38;1.77;;;1.00;;
9597;SDS011;4837;50.890;4.724;2022-08-03T15:54:05;2.33;;;1.00;;
9597;SDS011;4837;50.890;4.724;2022-08-03T15:56:31;2.40;;;1.13;;
9597;SDS011;4837;50.890;4.724;2022-08-03T15:58:57;4.00;;;1.10;;
9597;SDS011;4837;50.890;4.724;2022-08-03T16:01:24;4.03;;;1.10;;
9597;SDS011;4837;50.890;4.724;2022-08-03T16:03:50;3.05;;;0.93;;
9597;SDS011;4837;50.890;4.724;2022-08-03T16:06:16;3.50;;;1.10;;
9597;SDS011;4837;50.890;4.724;2022-08-03T16:08:43;1.55;;;1.05;;